This is the latest recevied weather packets stored in our database for station/object DH1NAI-6. If no packets are shown the sender has not sent any weather packets the latest 10 day(s).
| Time | Temp. | Humidity | Pressure | Rain* | Wind** | Luminosity | Snow |
|---|---|---|---|---|---|---|---|
| 1777582867 | 2.78° C | 87% | 1025.4 hPa | 0 mm | - | 0 W/m² | - |
| 1777582259 | 2.78° C | 86% | 1025.6 hPa | 0 mm | - | 0 W/m² | - |
| 1777581651 | 3.33° C | 85% | 1025.6 hPa | 0 mm | - | 0 W/m² | - |
| 1777581043 | 2.22° C | 88% | 1025.6 hPa | 0 mm | - | 0 W/m² | - |
| 1777580435 | 2.78° C | 87% | 1025.7 hPa | 0 mm | - | 0 W/m² | - |
| 1777579827 | 2.78° C | 86% | 1025.6 hPa | 0 mm | - | 0 W/m² | - |
| 1777579219 | 2.78° C | 85% | 1025.7 hPa | 0 mm | - | 0 W/m² | - |
| 1777578611 | 3.33° C | 82% | 1025.6 hPa | 0 mm | - | 0 W/m² | - |
| 1777578003 | 4.44° C | 80% | 1025.3 hPa | 0 mm | - | 0 W/m² | - |
| 1777577395 | 5° C | 77% | 1025.4 hPa | 0 mm | - | 0 W/m² | - |
| 1777576787 | 6.11° C | 73% | 1025.2 hPa | 0 mm | - | 0 W/m² | - |
| 1777576179 | 7.22° C | 71% | 1025.3 hPa | 0 mm | - | 0 W/m² | - |
| 1777575571 | 7.78° C | 67% | 1025.2 hPa | 0 mm | - | 0 W/m² | - |
| 1777574963 | 8.33° C | 64% | 1025 hPa | 0 mm | - | 0 W/m² | - |
| 1777574355 | 9.44° C | 61% | 1024.9 hPa | 0 mm | - | 0 W/m² | - |
| 1777573747 | 9.44° C | 60% | 1025 hPa | 0 mm | - | 1 W/m² | - |
| 1777573139 | 9.44° C | 60% | 1024.8 hPa | 0 mm | - | 2 W/m² | - |
| 1777572531 | 10° C | 58% | 1024.9 hPa | 0 mm | - | 3 W/m² | - |
| 1777571923 | 10.56° C | 56% | 1024.7 hPa | 0 mm | - | 5 W/m² | - |
| 1777571315 | 11.11° C | 55% | 1024.6 hPa | 0 mm | - | 6 W/m² | - |
| 1777570707 | 11.67° C | 50% | 1024.7 hPa | 0 mm | - | 7 W/m² | - |
| 1777570099 | 11.67° C | 48% | 1024.6 hPa | 0 mm | - | 8 W/m² | - |
| 1777569491 | 12.22° C | 47% | 1024.3 hPa | 0 mm | - | 9 W/m² | - |
| 1777568884 | 12.22° C | 48% | 1024.7 hPa | 0 mm | - | 10 W/m² | - |
| 1777568275 | 12.78° C | 46% | 1024.5 hPa | 0 mm | - | 10 W/m² | - |
* Rain latest hour (hover to see other rain measurements)
** Current wind speed in m/s (hover to see current wind gust speed)